createdAt,value
2019-03-18T00:04:36.544Z,7.50
2019-03-18T00:09:42.224Z,7.50
2019-03-18T00:14:47.792Z,7.50
2019-03-18T00:19:53.255Z,7.50
2019-03-18T00:25:00.345Z,7.50
2019-03-18T00:30:07.258Z,7.40
2019-03-18T00:35:13.215Z,7.40
2019-03-18T00:40:18.806Z,7.40
2019-03-18T00:45:24.403Z,7.40
2019-03-18T00:50:29.897Z,7.40
2019-03-18T00:55:35.498Z,7.40
2019-03-18T01:00:41.154Z,7.40
2019-03-18T01:05:46.688Z,7.40
2019-03-18T01:10:52.154Z,7.40
2019-03-18T01:15:57.640Z,7.30
2019-03-18T01:21:02.971Z,7.30
2019-03-18T01:26:08.563Z,7.30
2019-03-18T01:31:14.071Z,7.30
2019-03-18T01:36:19.647Z,7.30
2019-03-18T01:41:25.254Z,7.20
2019-03-18T01:46:30.635Z,7.10
2019-03-18T01:51:36.067Z,7.10
2019-03-18T01:56:41.726Z,7.10
2019-03-18T02:01:47.088Z,7.10
2019-03-18T02:06:52.863Z,7.20
2019-03-18T02:11:58.418Z,7.30
2019-03-18T02:17:03.981Z,7.20
2019-03-18T02:22:09.478Z,7.10
2019-03-18T02:27:15.184Z,7.10
2019-03-18T02:32:20.844Z,7.00
2019-03-18T02:37:26.370Z,6.90
2019-03-18T02:42:32.005Z,6.90
2019-03-18T02:47:37.702Z,6.90
2019-03-18T02:52:43.354Z,6.90
2019-03-18T02:57:48.839Z,6.80
2019-03-18T03:02:54.338Z,6.90
2019-03-18T03:07:59.964Z,6.90
2019-03-18T03:13:05.520Z,6.90
2019-03-18T03:18:10.962Z,6.90
2019-03-18T03:23:16.415Z,6.80
2019-03-18T03:28:21.812Z,6.80
2019-03-18T03:33:27.358Z,6.70
2019-03-18T03:38:32.924Z,6.70
2019-03-18T03:43:38.596Z,6.70
2019-03-18T03:49:02.833Z,6.60
2019-03-18T03:54:08.152Z,6.60
2019-03-18T03:59:13.866Z,6.60
2019-03-18T04:04:19.509Z,6.50
2019-03-18T04:09:25.272Z,6.50
2019-03-18T04:14:30.935Z,6.50
2019-03-18T04:19:36.369Z,6.50
2019-03-18T04:24:41.937Z,6.50
2019-03-18T04:29:47.501Z,6.50
2019-03-18T04:34:53.180Z,6.50
2019-03-18T04:39:58.732Z,6.50
2019-03-18T04:45:04.342Z,6.50
2019-03-18T04:50:09.975Z,6.60
2019-03-18T04:55:15.546Z,6.60
2019-03-18T05:00:21.247Z,6.60
2019-03-18T05:05:26.798Z,6.50
2019-03-18T05:10:32.359Z,6.40
2019-03-18T05:15:38.139Z,6.30
2019-03-18T05:20:43.489Z,6.40
2019-03-18T05:25:48.978Z,6.30
2019-03-18T05:30:54.514Z,6.30
2019-03-18T05:36:00.090Z,6.30
2019-03-18T05:41:05.860Z,6.30
2019-03-18T05:46:11.396Z,6.30
2019-03-18T05:51:17.078Z,6.30
2019-03-18T05:56:22.708Z,6.30
2019-03-18T06:01:28.188Z,6.30
2019-03-18T06:06:33.604Z,6.20
2019-03-18T06:11:39.248Z,6.20
2019-03-18T06:16:44.763Z,6.20
2019-03-18T06:21:50.123Z,6.20
2019-03-18T06:26:55.596Z,6.20
2019-03-18T06:32:01.085Z,6.20
2019-03-18T06:37:06.723Z,6.20
2019-03-18T06:42:12.382Z,6.20
2019-03-18T06:47:18.260Z,6.20
2019-03-18T06:52:23.855Z,6.20
2019-03-18T06:57:29.767Z,6.20
2019-03-18T07:02:35.389Z,6.20
2019-03-18T07:07:41.058Z,6.20
2019-03-18T07:12:46.641Z,6.20
2019-03-18T07:17:52.354Z,6.20
2019-03-18T07:22:57.730Z,6.20
2019-03-18T07:28:03.497Z,6.30
2019-03-18T07:33:08.962Z,6.30
2019-03-18T07:38:14.213Z,6.30
2019-03-18T07:43:19.842Z,6.40
2019-03-18T07:48:31.063Z,6.40
2019-03-18T07:53:32.529Z,6.40
2019-03-18T07:58:37.940Z,6.50
2019-03-18T08:03:43.466Z,6.60
2019-03-18T08:08:49.323Z,6.70
2019-03-18T08:13:54.610Z,6.80
2019-03-18T08:19:00.111Z,6.80
2019-03-18T08:24:05.753Z,7.00
2019-03-18T08:29:11.333Z,7.20
2019-03-18T08:34:16.748Z,7.40
2019-03-18T08:39:22.321Z,7.50
2019-03-18T08:44:27.895Z,7.60
2019-03-18T08:49:33.372Z,7.60
2019-03-18T08:54:39.117Z,7.70
2019-03-18T08:59:44.589Z,7.90
2019-03-18T09:04:49.952Z,8.20
2019-03-18T09:09:55.557Z,8.40
2019-03-18T09:15:01.052Z,8.70
2019-03-18T09:20:07.698Z,9.00
2019-03-18T09:25:13.324Z,9.20
2019-03-18T09:30:19.244Z,9.20
2019-03-18T09:35:25.817Z,9.10
2019-03-18T09:40:31.287Z,9.20
2019-03-18T09:45:36.755Z,9.10
2019-03-18T09:50:42.399Z,9.00
2019-03-18T09:55:48.164Z,8.90
2019-03-18T10:00:55.396Z,8.80
2019-03-18T10:06:00.911Z,8.70
2019-03-18T10:11:06.487Z,8.70
2019-03-18T10:16:12.005Z,8.70
2019-03-18T10:21:17.538Z,8.80
2019-03-18T10:26:23.132Z,8.90
2019-03-18T10:31:28.666Z,9.00
2019-03-18T10:36:34.326Z,9.10
2019-03-18T10:41:39.875Z,9.20
2019-03-18T10:46:45.324Z,9.30
2019-03-18T10:51:50.845Z,9.30
2019-03-18T10:56:56.284Z,9.40
2019-03-18T11:02:01.775Z,9.50
2019-03-18T11:07:07.341Z,9.60
2019-03-18T11:12:12.775Z,9.60
2019-03-18T11:17:18.140Z,9.80
2019-03-18T11:22:23.588Z,9.80
2019-03-18T11:27:29.140Z,10.00
2019-03-18T11:32:34.773Z,10.10
2019-03-18T11:37:40.532Z,9.90
2019-03-18T11:42:46.150Z,10.00
2019-03-18T11:47:51.724Z,10.30
2019-03-18T11:52:57.373Z,10.50
2019-03-18T11:58:02.819Z,10.60
2019-03-18T12:03:09.307Z,10.80
2019-03-18T12:08:14.907Z,10.70
2019-03-18T12:13:20.511Z,10.70
2019-03-18T12:18:26.109Z,10.60
2019-03-18T12:23:31.524Z,10.60
2019-03-18T12:28:36.930Z,10.80
2019-03-18T12:33:42.632Z,10.90
2019-03-18T12:38:48.296Z,11.10
2019-03-18T12:43:53.941Z,11.30
2019-03-18T12:48:59.576Z,11.40
2019-03-18T12:54:05.133Z,11.50
2019-03-18T12:59:10.729Z,11.40
2019-03-18T13:04:16.325Z,11.30
2019-03-18T13:09:21.982Z,11.20
2019-03-18T13:14:27.684Z,11.20
2019-03-18T13:19:33.194Z,11.30
2019-03-18T13:24:38.759Z,11.40
2019-03-18T13:29:44.208Z,11.50
2019-03-18T13:34:49.915Z,11.50
2019-03-18T13:39:55.680Z,11.40
2019-03-18T13:45:01.230Z,11.30
2019-03-18T13:50:07.445Z,11.60
2019-03-18T13:55:13.102Z,11.80
2019-03-18T14:00:18.883Z,11.80
2019-03-18T14:05:24.513Z,11.80
2019-03-18T14:10:30.003Z,11.60
2019-03-18T14:15:35.490Z,11.60
2019-03-18T14:20:41.121Z,11.70
2019-03-18T14:25:46.563Z,11.80
2019-03-18T14:30:52.260Z,11.80
2019-03-18T14:35:57.755Z,11.70
2019-03-18T14:41:03.241Z,11.60
2019-03-18T14:46:08.863Z,11.60
2019-03-18T14:51:14.506Z,11.60
2019-03-18T14:56:20.011Z,11.60
2019-03-18T15:01:25.503Z,11.50
2019-03-18T15:06:30.896Z,11.60
2019-03-18T15:11:36.270Z,11.60
2019-03-18T15:16:41.795Z,11.50
2019-03-18T15:21:57.889Z,11.50
2019-03-18T15:26:54.356Z,11.50
2019-03-18T15:32:00.231Z,11.50
2019-03-18T15:37:05.931Z,11.40
2019-03-18T15:42:12.841Z,11.40
2019-03-18T15:47:18.352Z,11.30
2019-03-18T15:52:23.939Z,11.30
2019-03-18T15:57:30.108Z,11.30
2019-03-18T16:02:35.767Z,11.30
2019-03-18T16:07:41.231Z,11.30
2019-03-18T16:12:46.937Z,11.20
2019-03-18T16:17:52.356Z,11.30
2019-03-18T16:22:57.945Z,11.20
2019-03-18T16:28:03.503Z,11.20
2019-03-18T16:33:08.936Z,11.20
2019-03-18T16:38:14.490Z,11.20
2019-03-18T16:43:20.177Z,11.10
2019-03-18T16:48:25.635Z,11.10
2019-03-18T16:53:30.998Z,11.10
2019-03-18T16:58:36.676Z,11.00
2019-03-18T17:03:42.448Z,10.90
2019-03-18T17:08:47.913Z,10.80
2019-03-18T17:13:53.735Z,10.70
2019-03-18T17:18:59.477Z,10.60
2019-03-18T17:24:05.146Z,10.60
2019-03-18T17:29:10.675Z,10.50
2019-03-18T17:34:16.388Z,10.50
2019-03-18T17:39:21.815Z,10.50
2019-03-18T17:44:27.711Z,10.50
2019-03-18T17:49:33.471Z,10.50
2019-03-18T17:54:39.118Z,10.50
2019-03-18T17:59:44.790Z,10.40
2019-03-18T18:05:02.074Z,10.40
2019-03-18T18:09:57.871Z,10.30
2019-03-18T18:15:03.609Z,10.30
2019-03-18T18:20:09.318Z,10.30
2019-03-18T18:25:15.004Z,10.10
2019-03-18T18:30:20.650Z,10.00
2019-03-18T18:35:26.303Z,10.00
2019-03-18T18:40:32.091Z,10.00
2019-03-18T18:45:37.753Z,10.10
2019-03-18T18:50:43.092Z,10.10
2019-03-18T18:55:48.596Z,10.20
2019-03-18T19:00:54.129Z,10.20
2019-03-18T19:05:59.803Z,10.10
2019-03-18T19:11:05.485Z,10.00
2019-03-18T19:16:11.022Z,10.10
2019-03-18T19:21:16.777Z,10.00
2019-03-18T19:26:22.321Z,9.90
2019-03-18T19:31:27.951Z,9.90
2019-03-18T19:36:33.616Z,9.90
2019-03-18T19:41:40.373Z,9.80
2019-03-18T19:46:47.344Z,9.80
2019-03-18T19:51:52.841Z,9.80
2019-03-18T19:56:58.338Z,9.80
2019-03-18T20:02:04.093Z,9.80
2019-03-18T20:07:09.673Z,9.70
2019-03-18T20:12:14.989Z,9.60
2019-03-18T20:17:20.588Z,9.60
2019-03-18T20:22:26.223Z,9.60
2019-03-18T20:27:31.796Z,9.50
2019-03-18T20:32:37.465Z,9.50
2019-03-18T20:37:43.033Z,9.50
2019-03-18T20:42:48.894Z,9.50
2019-03-18T20:47:54.501Z,9.50
2019-03-18T20:53:00.141Z,9.40
2019-03-18T20:58:05.824Z,9.40
2019-03-18T21:03:11.488Z,9.30
2019-03-18T21:08:17.014Z,9.30
2019-03-18T21:13:22.720Z,9.20
2019-03-18T21:18:28.244Z,9.10
2019-03-18T21:23:33.747Z,9.10
2019-03-18T21:28:41.413Z,9.00
2019-03-18T21:33:46.398Z,9.00
2019-03-18T21:38:52.047Z,8.90
2019-03-18T21:43:57.421Z,8.80
2019-03-18T21:49:03.091Z,8.80
2019-03-18T21:54:08.695Z,8.70
2019-03-18T21:59:14.340Z,8.70
2019-03-18T22:04:20.398Z,8.60
2019-03-18T22:09:25.949Z,8.50
2019-03-18T22:14:31.611Z,8.40
2019-03-18T22:19:37.280Z,8.40
2019-03-18T22:24:45.643Z,8.40
2019-03-18T22:29:50.005Z,8.30
2019-03-18T22:34:55.624Z,8.30
2019-03-18T22:40:01.080Z,8.20
2019-03-18T22:45:07.233Z,8.20
2019-03-18T22:50:13.123Z,8.10
2019-03-18T22:55:18.672Z,8.00
2019-03-18T23:00:41.923Z,7.90
2019-03-18T23:05:47.659Z,7.90
2019-03-18T23:10:53.305Z,7.90
2019-03-18T23:15:58.763Z,7.90
2019-03-18T23:21:04.441Z,7.90
2019-03-18T23:26:10.000Z,7.90
2019-03-18T23:31:15.473Z,8.00
2019-03-18T23:36:21.088Z,8.00
2019-03-18T23:41:26.697Z,7.90
2019-03-18T23:46:32.190Z,7.90
2019-03-18T23:51:37.846Z,8.00
2019-03-18T23:56:43.381Z,7.90
